createdAt,value
2022-08-02T00:02:20.996Z,80.24
2022-08-02T00:04:47.832Z,79.98
2022-08-02T00:07:15.772Z,80.18
2022-08-02T00:09:43.136Z,80.48
2022-08-02T00:12:10.828Z,81.02
2022-08-02T00:14:38.317Z,81.02
2022-08-02T00:17:05.927Z,81.52
2022-08-02T00:19:32.763Z,81.22
2022-08-02T00:21:59.311Z,80.95
2022-08-02T00:24:30.810Z,81.03
2022-08-02T00:26:57.941Z,81.17
2022-08-02T00:29:24.846Z,80.93
2022-08-02T00:31:51.369Z,81.03
2022-08-02T00:34:29.236Z,80.66
2022-08-02T00:36:58.771Z,80.64
2022-08-02T00:39:33.901Z,80.29
2022-08-02T00:42:01.968Z,79.94
2022-08-02T00:44:28.460Z,79.17
2022-08-02T00:46:54.927Z,79.40
2022-08-02T00:49:21.561Z,79.90
2022-08-02T00:51:48.300Z,80.10
2022-08-02T00:54:14.851Z,80.13
2022-08-02T00:56:49.539Z,80.58
2022-08-02T00:59:17.572Z,80.62
2022-08-02T01:01:56.300Z,80.23
2022-08-02T01:04:31.073Z,80.74
2022-08-02T01:06:59.827Z,80.84
2022-08-02T01:09:26.770Z,80.88
2022-08-02T01:11:53.550Z,81.09
2022-08-02T01:14:21.746Z,81.28
2022-08-02T01:17:06.621Z,81.09
2022-08-02T01:19:40.112Z,81.31
2022-08-02T01:22:16.830Z,81.40
2022-08-02T01:25:01.694Z,81.52
2022-08-02T01:27:28.095Z,81.40
2022-08-02T01:29:59.450Z,81.29
2022-08-02T01:32:31.594Z,81.63
2022-08-02T01:35:07.743Z,81.94
2022-08-02T01:37:47.823Z,81.85
2022-08-02T01:40:21.605Z,82.69
2022-08-02T01:42:51.611Z,82.91
2022-08-02T01:45:20.578Z,83.03
2022-08-02T01:47:49.537Z,83.08
2022-08-02T01:50:18.570Z,83.15
2022-08-02T01:52:53.685Z,83.94
2022-08-02T01:55:33.554Z,84.32
2022-08-02T01:58:14.814Z,84.19
2022-08-02T02:00:42.645Z,84.34
2022-08-02T02:03:15.723Z,84.23
2022-08-02T02:05:43.904Z,84.63
2022-08-02T02:08:11.945Z,84.62
2022-08-02T02:10:40.825Z,84.70
2022-08-02T02:13:12.124Z,85.25
2022-08-02T02:15:43.648Z,85.56
2022-08-02T02:18:14.879Z,85.71
2022-08-02T02:20:42.503Z,87.98
2022-08-02T02:23:09.455Z,89.54
2022-08-02T02:25:41.599Z,91.71
2022-08-02T02:28:16.961Z,92.52
2022-08-02T02:30:49.567Z,93.98
2022-08-02T02:33:19.031Z,95.01
2022-08-02T02:35:48.099Z,95.20
2022-08-02T02:38:18.109Z,95.78
2022-08-02T02:40:47.350Z,96.85
2022-08-02T02:43:14.903Z,96.76
2022-08-02T02:45:43.527Z,97.42
2022-08-02T02:48:12.298Z,99.06
2022-08-02T02:50:39.611Z,99.51
2022-08-02T02:53:07.043Z,99.23
2022-08-02T02:55:33.642Z,99.79
2022-08-02T02:58:00.447Z,98.87
2022-08-02T03:00:45.890Z,99.96
2022-08-02T03:03:13.531Z,99.20
2022-08-02T03:05:40.038Z,99.28
2022-08-02T03:08:06.804Z,99.58
2022-08-02T03:10:34.106Z,100.00
2022-08-02T03:13:01.052Z,99.77
2022-08-02T03:15:29.150Z,98.70
2022-08-02T03:17:55.790Z,99.53
2022-08-02T03:20:25.511Z,98.61
2022-08-02T03:22:52.069Z,98.52
2022-08-02T03:25:19.390Z,99.16
2022-08-02T03:27:47.410Z,99.17
2022-08-02T03:30:14.803Z,99.76
2022-08-02T03:32:45.142Z,100.00
2022-08-02T03:35:17.585Z,100.00
2022-08-02T03:37:52.094Z,100.00
2022-08-02T03:40:18.825Z,100.00
2022-08-02T03:42:45.593Z,99.64
2022-08-02T03:45:13.558Z,99.08
2022-08-02T03:47:40.607Z,97.96
2022-08-02T03:50:11.630Z,98.16
2022-08-02T03:52:40.594Z,97.84
2022-08-02T03:55:07.902Z,97.15
2022-08-02T03:57:37.626Z,96.28
2022-08-02T04:00:04.732Z,96.37
2022-08-02T04:02:31.253Z,96.02
2022-08-02T04:04:57.728Z,96.05
2022-08-02T04:08:36.104Z,95.51
2022-08-02T04:10:11.213Z,94.79
2022-08-02T04:12:38.389Z,94.46
2022-08-02T04:15:06.171Z,94.20
2022-08-02T04:17:36.092Z,93.99
2022-08-02T04:20:07.170Z,94.11
2022-08-02T04:22:39.465Z,93.50
2022-08-02T04:25:09.499Z,93.71
2022-08-02T04:27:50.869Z,94.35
2022-08-02T04:30:32.574Z,94.35
2022-08-02T04:32:59.613Z,94.93
2022-08-02T04:35:26.100Z,96.54
2022-08-02T04:38:09.365Z,97.12
2022-08-02T04:40:38.459Z,96.99
2022-08-02T04:43:04.952Z,96.19
2022-08-02T04:45:31.839Z,96.54
2022-08-02T04:48:06.277Z,95.82
2022-08-02T04:50:33.738Z,94.99
2022-08-02T04:53:00.330Z,94.84
2022-08-02T04:55:29.169Z,93.80
2022-08-02T04:57:57.547Z,93.48
2022-08-02T05:00:25.977Z,93.26
2022-08-02T05:02:52.697Z,93.32
2022-08-02T05:05:19.592Z,94.01
2022-08-02T05:07:46.432Z,92.89
2022-08-02T05:10:12.981Z,91.60
2022-08-02T05:12:39.560Z,91.99
2022-08-02T05:15:06.719Z,93.03
2022-08-02T05:17:35.726Z,92.82
2022-08-02T05:20:02.345Z,91.98
2022-08-02T05:22:28.801Z,91.89
2022-08-02T05:24:55.300Z,90.84
2022-08-02T05:27:22.199Z,91.71
2022-08-02T05:29:54.105Z,90.53
2022-08-02T05:32:25.086Z,89.77
2022-08-02T05:34:52.788Z,89.67
2022-08-02T05:37:19.249Z,90.26
2022-08-02T05:39:55.692Z,89.73
2022-08-02T05:42:23.156Z,90.13
2022-08-02T05:44:49.618Z,90.27
2022-08-02T05:47:16.087Z,90.05
2022-08-02T05:49:42.985Z,89.55
2022-08-02T05:52:16.413Z,87.45
2022-08-02T05:54:50.255Z,88.21
2022-08-02T05:57:43.251Z,87.18
2022-08-02T06:00:13.529Z,86.41
2022-08-02T06:02:42.803Z,86.83
2022-08-02T06:05:09.237Z,86.69
2022-08-02T06:07:36.848Z,84.53
2022-08-02T06:10:07.918Z,82.47
2022-08-02T06:12:41.310Z,81.35
2022-08-02T06:15:08.197Z,80.77
2022-08-02T06:17:34.789Z,80.45
2022-08-02T06:20:10.763Z,77.47
2022-08-02T06:22:42.376Z,72.80
2022-08-02T06:25:11.845Z,60.40
2022-08-02T06:27:58.938Z,59.87
2022-08-02T06:30:26.365Z,58.11
2022-08-02T06:32:53.525Z,63.19
2022-08-02T06:35:20.302Z,62.93
2022-08-02T06:37:59.121Z,65.66
2022-08-02T06:40:32.422Z,64.86
2022-08-02T06:43:34.866Z,65.68
2022-08-02T06:46:38.109Z,65.96
2022-08-02T06:48:50.269Z,65.01
2022-08-02T06:51:17.602Z,66.60
2022-08-02T06:53:44.733Z,67.54
2022-08-02T06:56:11.445Z,66.74
2022-08-02T06:58:39.287Z,67.81
2022-08-02T07:01:07.487Z,65.82
2022-08-02T07:03:34.756Z,64.65
2022-08-02T07:06:01.372Z,62.02
2022-08-02T07:08:32.374Z,62.31
2022-08-02T07:11:01.101Z,63.49
2022-08-02T07:13:28.936Z,58.53
2022-08-02T07:15:56.299Z,58.21
2022-08-02T07:18:24.671Z,57.50
2022-08-02T07:20:52.100Z,58.87
2022-08-02T07:23:18.817Z,56.30
2022-08-02T07:26:02.340Z,51.82
2022-08-02T07:28:30.094Z,50.60
2022-08-02T07:30:56.617Z,53.17
2022-08-02T07:33:38.468Z,52.44
2022-08-02T07:36:09.524Z,52.93
2022-08-02T07:38:37.487Z,53.93
2022-08-02T07:41:04.599Z,55.01
2022-08-02T07:43:31.209Z,54.41
2022-08-02T07:46:00.564Z,53.79
2022-08-02T07:48:27.717Z,51.54
2022-08-02T07:50:54.256Z,52.98
2022-08-02T07:53:20.784Z,53.90
2022-08-02T07:56:07.287Z,52.40
2022-08-02T07:58:33.734Z,51.71
2022-08-02T08:01:00.227Z,50.26
2022-08-02T08:03:26.693Z,45.96
2022-08-02T08:05:54.509Z,50.45
2022-08-02T08:08:21.122Z,48.29
2022-08-02T08:10:47.829Z,50.88
2022-08-02T08:13:14.877Z,50.78
2022-08-02T08:15:41.401Z,52.09
2022-08-02T08:18:17.940Z,52.70
2022-08-02T08:20:44.401Z,53.36
2022-08-02T08:23:10.881Z,54.87
2022-08-02T08:25:39.882Z,52.89
2022-08-02T08:28:08.972Z,52.22
2022-08-02T08:30:35.758Z,51.34
2022-08-02T08:33:02.917Z,49.40
2022-08-02T08:35:29.478Z,51.76
2022-08-02T08:37:55.912Z,50.41
2022-08-02T08:40:25.119Z,52.79
2022-08-02T08:42:52.007Z,53.87
2022-08-02T08:45:18.639Z,53.25
2022-08-02T08:47:51.185Z,54.24
2022-08-02T08:50:24.810Z,53.28
2022-08-02T08:52:54.736Z,53.08
2022-08-02T08:55:24.869Z,51.52
2022-08-02T08:57:52.718Z,49.62
2022-08-02T09:00:19.304Z,47.67
2022-08-02T09:02:46.407Z,46.72
2022-08-02T09:05:15.314Z,43.90
2022-08-02T09:07:44.986Z,43.17
2022-08-02T09:10:56.489Z,39.10
2022-08-02T09:13:37.559Z,43.42
2022-08-02T09:16:14.513Z,39.91
2022-08-02T09:18:46.935Z,41.37
2022-08-02T09:21:15.844Z,41.36
2022-08-02T09:23:47.515Z,41.50
2022-08-02T09:26:16.661Z,43.15
2022-08-02T09:28:46.446Z,43.54
2022-08-02T09:31:16.327Z,45.61
2022-08-02T09:33:44.237Z,45.43
2022-08-02T09:36:13.530Z,46.12
2022-08-02T09:38:41.753Z,47.06
2022-08-02T09:41:21.846Z,44.96
2022-08-02T09:44:03.066Z,44.61
2022-08-02T09:46:39.157Z,42.71
2022-08-02T09:49:13.070Z,44.48
2022-08-02T09:51:47.443Z,45.25
2022-08-02T09:54:18.057Z,45.35
2022-08-02T09:56:50.191Z,45.74
2022-08-02T09:59:18.472Z,46.65
2022-08-02T10:01:50.606Z,45.57
2022-08-02T10:04:29.889Z,44.63
2022-08-02T10:06:59.509Z,44.44
2022-08-02T10:09:28.715Z,43.54
2022-08-02T10:11:55.862Z,45.10
2022-08-02T10:14:23.526Z,43.63
2022-08-02T10:16:50.446Z,43.87
2022-08-02T10:19:16.907Z,45.62
2022-08-02T10:21:56.258Z,44.92
2022-08-02T10:28:05.441Z,43.82
2022-08-02T10:30:34.646Z,47.13
2022-08-02T10:33:03.865Z,46.84
2022-08-02T10:35:33.742Z,49.08
2022-08-02T10:38:07.954Z,49.44
2022-08-02T10:40:46.580Z,47.36
2022-08-02T10:43:28.194Z,49.19
2022-08-02T10:45:54.638Z,49.62
2022-08-02T10:48:21.716Z,46.72
2022-08-02T10:50:48.167Z,48.05
2022-08-02T10:53:27.059Z,47.86
2022-08-02T10:55:55.323Z,46.98
2022-08-02T10:58:29.464Z,46.43
2022-08-02T11:01:26.696Z,44.95
2022-08-02T11:04:09.736Z,43.33
2022-08-02T11:07:10.365Z,46.19
2022-08-02T11:09:38.077Z,45.45
2022-08-02T11:12:10.997Z,45.60
2022-08-02T11:14:43.179Z,43.40
2022-08-02T11:17:12.567Z,44.11
2022-08-02T11:20:13.168Z,44.07
2022-08-02T11:22:40.840Z,43.42
2022-08-02T11:25:22.233Z,43.70
2022-08-02T11:27:48.595Z,45.71
2022-08-02T11:30:15.958Z,46.78
2022-08-02T11:32:42.652Z,45.64
2022-08-02T11:35:09.707Z,43.89
2022-08-02T11:38:24.486Z,44.26
2022-08-02T11:40:51.066Z,42.69
2022-08-02T11:43:27.386Z,42.60
2022-08-02T11:45:56.175Z,41.97
2022-08-02T11:48:36.008Z,41.90
2022-08-02T11:51:11.004Z,41.78
2022-08-02T11:53:45.975Z,42.64
2022-08-02T11:56:13.641Z,40.92
2022-08-02T11:59:08.956Z,41.02
2022-08-02T12:01:45.122Z,40.87
2022-08-02T12:04:16.825Z,41.06
2022-08-02T12:06:43.986Z,39.99
2022-08-02T12:09:18.238Z,39.33
2022-08-02T12:11:50.083Z,41.60
2022-08-02T12:14:16.859Z,41.51
2022-08-02T12:17:01.613Z,40.61
2022-08-02T12:19:28.526Z,40.98
2022-08-02T12:22:16.479Z,41.21
2022-08-02T12:24:48.991Z,40.69
2022-08-02T12:27:53.444Z,39.49
2022-08-02T12:30:27.506Z,39.19
2022-08-02T12:33:12.712Z,40.72
2022-08-02T12:35:39.834Z,38.77
2022-08-02T12:38:12.991Z,39.20
2022-08-02T12:40:39.743Z,38.56
2022-08-02T12:43:08.247Z,38.79
2022-08-02T12:45:57.295Z,39.20
2022-08-02T12:49:15.919Z,37.31
2022-08-02T12:51:55.726Z,38.38
2022-08-02T12:54:32.662Z,37.18
2022-08-02T12:57:17.141Z,37.43
2022-08-02T12:59:50.194Z,37.17
2022-08-02T13:02:17.695Z,37.05
2022-08-02T13:04:50.108Z,39.06
2022-08-02T13:07:17.652Z,40.22
2022-08-02T13:09:48.301Z,40.13
2022-08-02T13:12:15.529Z,39.00
2022-08-02T13:14:42.866Z,37.71
2022-08-02T13:17:12.118Z,38.29
2022-08-02T13:19:38.898Z,37.97
2022-08-02T13:22:06.168Z,38.40
2022-08-02T13:24:40.525Z,38.25
2022-08-02T13:27:22.053Z,37.70
2022-08-02T13:29:49.977Z,38.25
2022-08-02T13:32:17.071Z,37.22
2022-08-02T13:34:43.982Z,38.63
2022-08-02T13:37:10.703Z,37.96
2022-08-02T13:39:37.204Z,37.92
2022-08-02T13:42:04.002Z,37.39
2022-08-02T13:44:32.375Z,37.30
2022-08-02T13:46:58.830Z,37.51
2022-08-02T13:49:42.626Z,38.86
2022-08-02T13:52:12.498Z,36.97
2022-08-02T13:54:39.246Z,36.40
2022-08-02T13:58:08.938Z,38.71
2022-08-02T14:00:36.314Z,39.50
2022-08-02T14:03:04.648Z,39.26
2022-08-02T14:05:39.288Z,38.23
2022-08-02T14:08:16.974Z,39.40
2022-08-02T14:10:44.928Z,39.52
2022-08-02T14:13:11.387Z,38.47
2022-08-02T14:15:37.921Z,38.27
2022-08-02T14:18:04.422Z,37.12
2022-08-02T14:20:30.893Z,38.03
2022-08-02T14:22:57.381Z,37.84
2022-08-02T14:25:24.068Z,36.80
2022-08-02T14:27:50.512Z,38.84
2022-08-02T14:30:17.813Z,38.73
2022-08-02T14:32:45.079Z,39.21
2022-08-02T14:35:11.614Z,38.49
2022-08-02T14:37:38.057Z,37.87
2022-08-02T14:40:05.083Z,38.74
2022-08-02T14:42:31.536Z,38.09
2022-08-02T14:44:58.070Z,37.89
2022-08-02T14:47:24.631Z,37.42
2022-08-02T14:49:51.248Z,37.82
2022-08-02T14:52:19.119Z,38.04
2022-08-02T14:54:46.866Z,38.86
2022-08-02T14:57:13.932Z,38.10
2022-08-02T14:59:42.239Z,37.62
2022-08-02T15:02:10.686Z,37.73
2022-08-02T15:04:43.165Z,38.22
2022-08-02T15:07:10.510Z,38.74
2022-08-02T15:09:39.836Z,37.80
2022-08-02T15:12:07.460Z,38.63
2022-08-02T15:14:33.944Z,38.45
2022-08-02T15:17:00.429Z,37.92
2022-08-02T15:19:41.574Z,37.87
2022-08-02T15:22:16.570Z,37.87
2022-08-02T15:24:44.360Z,37.80
2022-08-02T15:27:13.684Z,38.38
2022-08-02T15:30:33.896Z,39.61
2022-08-02T15:33:00.377Z,38.03
2022-08-02T15:35:27.009Z,38.16
2022-08-02T15:37:54.273Z,37.02
2022-08-02T15:40:21.230Z,37.20
2022-08-02T15:42:47.664Z,35.47
2022-08-02T15:45:15.769Z,35.73
2022-08-02T15:47:50.379Z,36.50
2022-08-02T15:50:17.771Z,38.00
2022-08-02T15:52:45.329Z,37.47
2022-08-02T15:55:11.828Z,39.33
2022-08-02T15:57:38.269Z,38.04
2022-08-02T16:00:06.460Z,37.08
2022-08-02T16:02:44.340Z,36.76
2022-08-02T16:05:13.705Z,36.93
2022-08-02T16:07:41.221Z,37.53
2022-08-02T16:10:08.946Z,39.06
2022-08-02T16:12:35.409Z,38.35
2022-08-02T16:15:01.864Z,38.68
2022-08-02T16:17:49.020Z,38.46
2022-08-02T16:20:14.791Z,38.71
2022-08-02T16:22:41.604Z,38.18
2022-08-02T16:25:09.886Z,38.39
2022-08-02T16:28:00.179Z,38.77
2022-08-02T16:30:30.027Z,38.85
2022-08-02T16:32:56.520Z,38.16
2022-08-02T16:35:23.002Z,39.52
2022-08-02T16:37:52.048Z,38.41
2022-08-02T16:40:20.575Z,38.79
2022-08-02T16:42:50.709Z,38.99
2022-08-02T16:48:06.865Z,38.11
2022-08-02T16:50:36.654Z,38.22
2022-08-02T16:53:07.353Z,39.43
2022-08-02T16:55:34.276Z,40.60
2022-08-02T16:58:01.158Z,39.16
2022-08-02T17:00:28.634Z,39.80
2022-08-02T17:02:59.516Z,39.49
2022-08-02T17:05:30.353Z,39.66
2022-08-02T17:08:07.351Z,41.40
2022-08-02T17:10:43.329Z,41.37
2022-08-02T17:16:51.336Z,42.13
2022-08-02T17:19:17.834Z,42.50
2022-08-02T17:21:44.446Z,43.39
2022-08-02T17:24:10.935Z,42.01
2022-08-02T17:26:38.620Z,41.90
2022-08-02T17:29:15.545Z,43.34
2022-08-02T17:32:05.528Z,43.30
2022-08-02T17:34:31.960Z,41.85
2022-08-02T17:37:00.152Z,41.75
2022-08-02T17:39:34.168Z,44.34
2022-08-02T17:42:15.455Z,45.80
2022-08-02T17:44:49.207Z,44.77
2022-08-02T17:47:16.308Z,44.90
2022-08-02T17:49:48.525Z,46.04
2022-08-02T17:52:50.105Z,47.72
2022-08-02T17:55:06.095Z,49.29
2022-08-02T17:57:55.456Z,50.48
2022-08-02T18:00:53.743Z,50.44
2022-08-02T18:03:20.776Z,50.58
2022-08-02T18:05:53.765Z,51.43
2022-08-02T18:08:23.892Z,53.31
2022-08-02T18:10:52.789Z,54.29
2022-08-02T18:13:19.475Z,55.18
2022-08-02T18:15:46.168Z,55.51
2022-08-02T18:18:14.492Z,56.87
2022-08-02T18:20:41.332Z,57.34
2022-08-02T18:25:55.393Z,57.71
2022-08-02T18:28:22.464Z,58.64
2022-08-02T18:30:53.487Z,58.71
2022-08-02T18:33:55.425Z,59.54
2022-08-02T18:36:07.579Z,59.57
2022-08-02T18:38:34.100Z,60.23
2022-08-02T18:41:06.923Z,60.57
2022-08-02T18:43:43.360Z,60.78
2022-08-02T18:46:15.820Z,61.06
2022-08-02T18:48:47.746Z,61.69
2022-08-02T18:51:15.906Z,62.07
2022-08-02T18:53:43.379Z,62.42
2022-08-02T18:56:19.744Z,62.88
2022-08-02T18:58:54.714Z,63.43
2022-08-02T19:01:33.828Z,64.16
2022-08-02T19:04:04.122Z,64.41
2022-08-02T19:06:31.479Z,64.33
2022-08-02T19:09:05.684Z,64.74
2022-08-02T19:11:41.283Z,65.01
2022-08-02T19:14:13.616Z,65.92
2022-08-02T19:16:46.173Z,66.63
2022-08-02T19:19:19.482Z,66.82
2022-08-02T19:22:18.266Z,66.69
2022-08-02T19:24:32.961Z,66.98
2022-08-02T19:26:59.797Z,67.29
2022-08-02T19:29:48.622Z,67.34
2022-08-02T19:32:41.764Z,67.51
2022-08-02T19:35:19.436Z,68.37
2022-08-02T19:37:51.312Z,68.75
2022-08-02T19:40:23.945Z,69.16
2022-08-02T19:45:49.766Z,69.36
2022-08-02T19:48:24.204Z,70.02
2022-08-02T19:50:55.932Z,70.26
2022-08-02T19:53:23.497Z,70.63
2022-08-02T19:55:59.751Z,70.59
2022-08-02T19:58:28.301Z,70.50
2022-08-02T20:00:54.788Z,71.28
2022-08-02T20:03:21.225Z,71.91
2022-08-02T20:06:07.826Z,72.38
2022-08-02T20:08:37.469Z,72.14
2022-08-02T20:11:04.124Z,72.49
2022-08-02T20:13:34.692Z,73.20
2022-08-02T20:16:27.545Z,73.16
2022-08-02T20:18:55.911Z,73.30
2022-08-02T20:21:35.595Z,73.54
2022-08-02T20:24:05.470Z,73.68
2022-08-02T20:26:32.082Z,74.25
2022-08-02T20:31:45.369Z,75.20
2022-08-02T20:34:12.733Z,75.19
2022-08-02T20:36:39.278Z,75.23
2022-08-02T20:39:05.842Z,75.19
2022-08-02T20:41:36.911Z,76.08
2022-08-02T20:44:16.012Z,76.49
2022-08-02T20:46:56.531Z,77.62
2022-08-02T20:49:40.346Z,77.75
2022-08-02T20:52:23.992Z,78.38
2022-08-02T20:54:50.707Z,78.24
2022-08-02T20:57:17.143Z,77.36
2022-08-02T20:59:44.085Z,78.68
2022-08-02T21:02:19.030Z,79.00
2022-08-02T21:04:46.788Z,79.08
2022-08-02T21:07:13.313Z,79.11
2022-08-02T21:09:52.818Z,79.42
2022-08-02T21:13:18.875Z,80.15
2022-08-02T21:15:49.727Z,81.11
2022-08-02T21:18:25.683Z,81.25
2022-08-02T21:21:02.807Z,81.77
2022-08-02T21:23:29.470Z,81.70
2022-08-02T21:25:57.879Z,81.56
2022-08-02T21:28:34.970Z,83.05
2022-08-02T21:31:10.473Z,82.20
2022-08-02T21:33:56.614Z,82.56
2022-08-02T21:36:30.711Z,82.38
2022-08-02T21:38:59.594Z,81.99
2022-08-02T21:41:39.852Z,82.38
2022-08-02T21:44:12.651Z,82.57
2022-08-02T21:46:39.171Z,82.74
2022-08-02T21:49:41.195Z,83.44
2022-08-02T21:52:13.755Z,83.31
2022-08-02T21:54:41.058Z,82.64
2022-08-02T21:57:16.064Z,82.46
2022-08-02T21:59:45.276Z,82.35
2022-08-02T22:02:12.263Z,82.27
2022-08-02T22:04:38.805Z,82.81
2022-08-02T22:07:05.350Z,83.67
2022-08-02T22:09:42.114Z,84.01
2022-08-02T22:12:10.062Z,83.72
2022-08-02T22:14:39.638Z,83.73
2022-08-02T22:17:13.401Z,83.88
2022-08-02T22:19:40.366Z,84.97
2022-08-02T22:22:20.739Z,85.45
2022-08-02T22:24:56.493Z,85.15
2022-08-02T22:27:23.454Z,85.07
2022-08-02T22:30:10.536Z,84.73
2022-08-02T22:32:56.284Z,86.52
2022-08-02T22:35:22.968Z,85.36
2022-08-02T22:38:14.840Z,85.26
2022-08-02T22:40:35.901Z,85.75
2022-08-02T22:43:02.404Z,85.81
2022-08-02T22:45:29.366Z,86.88
2022-08-02T22:47:58.507Z,86.71
2022-08-02T22:50:26.994Z,86.34
2022-08-02T22:52:54.499Z,86.33
2022-08-02T22:55:21.489Z,86.92
2022-08-02T22:57:56.635Z,86.36
2022-08-02T22:58:50.530Z,39.86
2022-08-02T22:58:52.680Z,68.94
2022-08-02T22:58:55.567Z,74.39
2022-08-02T22:58:59.905Z,57.30
2022-08-02T23:00:35.925Z,86.15
2022-08-02T23:03:02.885Z,86.77
2022-08-02T23:05:30.165Z,87.04
2022-08-02T23:07:56.634Z,87.12
2022-08-02T23:10:23.628Z,87.28
2022-08-02T23:12:50.145Z,87.04
2022-08-02T23:15:16.660Z,87.24
2022-08-02T23:18:01.615Z,87.94
2022-08-02T23:20:28.139Z,88.14
2022-08-02T23:22:55.772Z,89.01
2022-08-02T23:25:22.638Z,88.62
2022-08-02T23:27:51.171Z,88.37
2022-08-02T23:30:18.696Z,88.36
2022-08-02T23:32:46.931Z,88.83
2022-08-02T23:35:17.147Z,89.29
2022-08-02T23:37:59.219Z,88.89
2022-08-02T23:40:39.153Z,88.10
2022-08-02T23:43:13.488Z,88.50
2022-08-02T23:45:45.591Z,88.36
2022-08-02T23:48:12.228Z,88.44
2022-08-02T23:50:38.857Z,89.34
2022-08-02T23:53:05.360Z,89.38
2022-08-02T23:55:31.864Z,89.10
2022-08-02T23:57:58.336Z,89.06
